sensor_id;sensor_type;location;lat;lon;timestamp;temperature;humidity
23267;DHT22;11802;53.160;8.214;2024-01-30T00:01:11;6.10;99.90
23267;DHT22;11802;53.160;8.214;2024-01-30T00:03:36;6.10;99.90
23267;DHT22;11802;53.160;8.214;2024-01-30T00:06:03;6.00;99.90
23267;DHT22;11802;53.160;8.214;2024-01-30T00:08:29;6.00;99.90
23267;DHT22;11802;53.160;8.214;2024-01-30T00:10:54;6.00;99.90
23267;DHT22;11802;53.160;8.214;2024-01-30T00:13:20;6.00;99.90
23267;DHT22;11802;53.160;8.214;2024-01-30T00:15:46;6.10;99.90
23267;DHT22;11802;53.160;8.214;2024-01-30T00:18:11;6.10;99.90
23267;DHT22;11802;53.160;8.214;2024-01-30T00:20:37;6.10;99.90
23267;DHT22;11802;53.160;8.214;2024-01-30T00:23:04;6.10;99.90
23267;DHT22;11802;53.160;8.214;2024-01-30T00:25:30;6.10;99.90
23267;DHT22;11802;53.160;8.214;2024-01-30T00:27:55;6.10;99.90
23267;DHT22;11802;53.160;8.214;2024-01-30T00:30:21;6.10;99.90
23267;DHT22;11802;53.160;8.214;2024-01-30T00:32:46;6.10;99.90
23267;DHT22;11802;53.160;8.214;2024-01-30T00:35:12;6.10;99.90
23267;DHT22;11802;53.160;8.214;2024-01-30T00:37:38;6.10;99.90
23267;DHT22;11802;53.160;8.214;2024-01-30T00:40:03;6.10;99.90
23267;DHT22;11802;53.160;8.214;2024-01-30T00:42:31;6.10;99.90
23267;DHT22;11802;53.160;8.214;2024-01-30T00:44:57;6.10;99.90
23267;DHT22;11802;53.160;8.214;2024-01-30T00:47:23;6.10;99.90
23267;DHT22;11802;53.160;8.214;2024-01-30T00:49:48;6.10;99.90
23267;DHT22;11802;53.160;8.214;2024-01-30T00:52:15;6.10;99.90
23267;DHT22;11802;53.160;8.214;2024-01-30T00:54:41;6.10;99.90
23267;DHT22;11802;53.160;8.214;2024-01-30T00:57:07;6.10;99.90
23267;DHT22;11802;53.160;8.214;2024-01-30T00:59:32;6.10;99.90
23267;DHT22;11802;53.160;8.214;2024-01-30T01:01:58;6.10;99.90
23267;DHT22;11802;53.160;8.214;2024-01-30T01:04:23;6.10;99.90
23267;DHT22;11802;53.160;8.214;2024-01-30T01:06:49;6.00;99.90
23267;DHT22;11802;53.160;8.214;2024-01-30T01:09:15;6.00;99.90
23267;DHT22;11802;53.160;8.214;2024-01-30T01:11:40;6.00;99.90
23267;DHT22;11802;53.160;8.214;2024-01-30T01:14:06;6.00;99.90
23267;DHT22;11802;53.160;8.214;2024-01-30T01:16:31;6.00;99.90
23267;DHT22;11802;53.160;8.214;2024-01-30T01:18:57;6.00;99.90
23267;DHT22;11802;53.160;8.214;2024-01-30T01:21:22;5.90;99.90
23267;DHT22;11802;53.160;8.214;2024-01-30T01:23:48;5.90;99.90
23267;DHT22;11802;53.160;8.214;2024-01-30T01:26:14;5.90;99.90
23267;DHT22;11802;53.160;8.214;2024-01-30T01:28:40;5.90;99.90
23267;DHT22;11802;53.160;8.214;2024-01-30T01:31:06;5.90;99.90
23267;DHT22;11802;53.160;8.214;2024-01-30T01:33:32;5.90;99.90
23267;DHT22;11802;53.160;8.214;2024-01-30T01:35:59;6.00;99.90
23267;DHT22;11802;53.160;8.214;2024-01-30T01:38:25;5.90;99.90
23267;DHT22;11802;53.160;8.214;2024-01-30T01:40:51;5.90;99.90
23267;DHT22;11802;53.160;8.214;2024-01-30T01:43:16;5.90;99.90
23267;DHT22;11802;53.160;8.214;2024-01-30T01:45:42;5.90;99.90
23267;DHT22;11802;53.160;8.214;2024-01-30T01:48:07;5.80;99.90
23267;DHT22;11802;53.160;8.214;2024-01-30T01:50:34;5.90;99.90
23267;DHT22;11802;53.160;8.214;2024-01-30T01:53:00;5.80;99.90
23267;DHT22;11802;53.160;8.214;2024-01-30T01:55:27;5.80;99.90
23267;DHT22;11802;53.160;8.214;2024-01-30T01:57:54;5.90;99.90
23267;DHT22;11802;53.160;8.214;2024-01-30T02:00:20;5.90;99.90
23267;DHT22;11802;53.160;8.214;2024-01-30T02:02:46;5.80;99.90
23267;DHT22;11802;53.160;8.214;2024-01-30T02:05:12;5.80;99.90
23267;DHT22;11802;53.160;8.214;2024-01-30T02:07:38;5.90;99.90
23267;DHT22;11802;53.160;8.214;2024-01-30T02:10:04;5.80;99.90
23267;DHT22;11802;53.160;8.214;2024-01-30T02:12:30;5.90;99.90
23267;DHT22;11802;53.160;8.214;2024-01-30T02:14:55;5.80;99.90
23267;DHT22;11802;53.160;8.214;2024-01-30T02:17:21;5.80;99.90
23267;DHT22;11802;53.160;8.214;2024-01-30T02:19:48;5.80;99.90
23267;DHT22;11802;53.160;8.214;2024-01-30T02:22:14;5.80;99.90
23267;DHT22;11802;53.160;8.214;2024-01-30T02:24:40;5.80;99.90
23267;DHT22;11802;53.160;8.214;2024-01-30T02:27:05;5.80;99.90
23267;DHT22;11802;53.160;8.214;2024-01-30T02:29:31;5.80;99.90
23267;DHT22;11802;53.160;8.214;2024-01-30T02:31:57;5.80;99.90
23267;DHT22;11802;53.160;8.214;2024-01-30T02:34:23;5.70;99.90
23267;DHT22;11802;53.160;8.214;2024-01-30T02:36:49;5.70;99.90
23267;DHT22;11802;53.160;8.214;2024-01-30T02:39:14;5.70;99.90
23267;DHT22;11802;53.160;8.214;2024-01-30T02:41:40;5.70;99.90
23267;DHT22;11802;53.160;8.214;2024-01-30T02:44:05;5.70;99.90
23267;DHT22;11802;53.160;8.214;2024-01-30T02:46:31;5.70;99.90
23267;DHT22;11802;53.160;8.214;2024-01-30T02:48:56;5.70;99.90
23267;DHT22;11802;53.160;8.214;2024-01-30T02:51:22;5.70;99.90
23267;DHT22;11802;53.160;8.214;2024-01-30T02:53:48;5.80;99.90
23267;DHT22;11802;53.160;8.214;2024-01-30T02:56:13;5.70;99.90
23267;DHT22;11802;53.160;8.214;2024-01-30T02:58:40;5.80;99.90
23267;DHT22;11802;53.160;8.214;2024-01-30T03:01:06;5.80;99.90
23267;DHT22;11802;53.160;8.214;2024-01-30T03:03:31;5.70;99.90
23267;DHT22;11802;53.160;8.214;2024-01-30T03:05:57;5.70;99.90
23267;DHT22;11802;53.160;8.214;2024-01-30T03:08:23;5.70;99.90
23267;DHT22;11802;53.160;8.214;2024-01-30T03:10:48;5.70;99.90
23267;DHT22;11802;53.160;8.214;2024-01-30T03:13:14;5.70;99.90
23267;DHT22;11802;53.160;8.214;2024-01-30T03:15:40;5.70;99.90
23267;DHT22;11802;53.160;8.214;2024-01-30T03:18:05;5.70;99.90
23267;DHT22;11802;53.160;8.214;2024-01-30T03:20:31;5.70;99.90
23267;DHT22;11802;53.160;8.214;2024-01-30T03:22:57;5.80;99.90
23267;DHT22;11802;53.160;8.214;2024-01-30T03:25:24;5.80;99.90
23267;DHT22;11802;53.160;8.214;2024-01-30T03:27:50;5.90;99.90
23267;DHT22;11802;53.160;8.214;2024-01-30T03:30:15;5.90;99.90
23267;DHT22;11802;53.160;8.214;2024-01-30T03:32:41;5.90;99.90
23267;DHT22;11802;53.160;8.214;2024-01-30T03:35:07;6.00;99.90
23267;DHT22;11802;53.160;8.214;2024-01-30T03:37:32;6.00;99.90
23267;DHT22;11802;53.160;8.214;2024-01-30T03:39:58;6.00;99.90
23267;DHT22;11802;53.160;8.214;2024-01-30T03:42:23;6.10;99.90
23267;DHT22;11802;53.160;8.214;2024-01-30T03:44:49;6.10;99.90
23267;DHT22;11802;53.160;8.214;2024-01-30T03:47:18;6.10;99.90
23267;DHT22;11802;53.160;8.214;2024-01-30T03:49:45;6.10;99.90
23267;DHT22;11802;53.160;8.214;2024-01-30T03:52:10;6.10;99.90
23267;DHT22;11802;53.160;8.214;2024-01-30T03:54:36;6.10;99.90
23267;DHT22;11802;53.160;8.214;2024-01-30T03:57:01;6.10;99.90
23267;DHT22;11802;53.160;8.214;2024-01-30T03:59:27;6.10;99.90
23267;DHT22;11802;53.160;8.214;2024-01-30T04:01:53;6.10;99.90
23267;DHT22;11802;53.160;8.214;2024-01-30T04:04:18;6.10;99.90
23267;DHT22;11802;53.160;8.214;2024-01-30T04:06:45;6.00;99.90
23267;DHT22;11802;53.160;8.214;2024-01-30T04:09:11;6.00;99.90
23267;DHT22;11802;53.160;8.214;2024-01-30T04:11:36;6.00;99.90
23267;DHT22;11802;53.160;8.214;2024-01-30T04:14:02;5.90;99.90
23267;DHT22;11802;53.160;8.214;2024-01-30T04:16:27;5.90;99.90
23267;DHT22;11802;53.160;8.214;2024-01-30T04:18:53;5.90;99.90
23267;DHT22;11802;53.160;8.214;2024-01-30T04:21:21;5.90;99.90
23267;DHT22;11802;53.160;8.214;2024-01-30T04:23:47;5.90;99.90
23267;DHT22;11802;53.160;8.214;2024-01-30T04:26:13;5.90;99.90
23267;DHT22;11802;53.160;8.214;2024-01-30T04:28:41;5.90;99.90
23267;DHT22;11802;53.160;8.214;2024-01-30T04:31:07;5.80;99.90
23267;DHT22;11802;53.160;8.214;2024-01-30T04:33:32;5.80;99.90
23267;DHT22;11802;53.160;8.214;2024-01-30T04:35:58;5.80;99.90
23267;DHT22;11802;53.160;8.214;2024-01-30T04:38:24;5.80;99.90
23267;DHT22;11802;53.160;8.214;2024-01-30T04:40:49;5.80;99.90
23267;DHT22;11802;53.160;8.214;2024-01-30T04:43:15;5.70;99.90
23267;DHT22;11802;53.160;8.214;2024-01-30T04:45:41;5.80;99.90
23267;DHT22;11802;53.160;8.214;2024-01-30T04:48:07;5.80;99.90
23267;DHT22;11802;53.160;8.214;2024-01-30T04:50:32;5.80;99.90
23267;DHT22;11802;53.160;8.214;2024-01-30T04:52:58;5.80;99.90
23267;DHT22;11802;53.160;8.214;2024-01-30T04:55:24;5.70;99.90
23267;DHT22;11802;53.160;8.214;2024-01-30T04:57:49;5.70;99.90
23267;DHT22;11802;53.160;8.214;2024-01-30T05:00:15;5.70;99.90
23267;DHT22;11802;53.160;8.214;2024-01-30T05:02:41;5.80;99.90
23267;DHT22;11802;53.160;8.214;2024-01-30T05:05:06;5.80;99.90
23267;DHT22;11802;53.160;8.214;2024-01-30T05:07:33;5.80;99.90
23267;DHT22;11802;53.160;8.214;2024-01-30T05:09:58;5.80;99.90
23267;DHT22;11802;53.160;8.214;2024-01-30T05:12:24;5.90;99.90
23267;DHT22;11802;53.160;8.214;2024-01-30T05:14:50;5.90;99.90
23267;DHT22;11802;53.160;8.214;2024-01-30T05:17:15;5.90;99.90
23267;DHT22;11802;53.160;8.214;2024-01-30T05:19:41;5.90;99.90
23267;DHT22;11802;53.160;8.214;2024-01-30T05:22:06;6.00;99.90
23267;DHT22;11802;53.160;8.214;2024-01-30T05:24:32;6.00;99.90
23267;DHT22;11802;53.160;8.214;2024-01-30T05:26:57;6.00;99.90
23267;DHT22;11802;53.160;8.214;2024-01-30T05:29:24;6.10;99.90
23267;DHT22;11802;53.160;8.214;2024-01-30T05:31:49;6.00;99.90
23267;DHT22;11802;53.160;8.214;2024-01-30T05:34:15;6.00;99.90
23267;DHT22;11802;53.160;8.214;2024-01-30T05:36:41;6.00;99.90
23267;DHT22;11802;53.160;8.214;2024-01-30T05:39:07;6.00;99.90
23267;DHT22;11802;53.160;8.214;2024-01-30T05:41:32;6.00;99.90
23267;DHT22;11802;53.160;8.214;2024-01-30T05:43:58;5.90;99.90
23267;DHT22;11802;53.160;8.214;2024-01-30T05:46:23;5.90;99.90
23267;DHT22;11802;53.160;8.214;2024-01-30T05:48:49;5.90;99.90
23267;DHT22;11802;53.160;8.214;2024-01-30T05:51:15;5.90;99.90
23267;DHT22;11802;53.160;8.214;2024-01-30T05:53:40;5.90;99.90
23267;DHT22;11802;53.160;8.214;2024-01-30T05:56:06;5.90;99.90
23267;DHT22;11802;53.160;8.214;2024-01-30T05:58:32;5.90;99.90
23267;DHT22;11802;53.160;8.214;2024-01-30T06:00:57;5.80;99.90
23267;DHT22;11802;53.160;8.214;2024-01-30T06:03:23;5.80;99.90
23267;DHT22;11802;53.160;8.214;2024-01-30T06:05:49;5.80;99.90
23267;DHT22;11802;53.160;8.214;2024-01-30T06:08:14;5.80;99.90
23267;DHT22;11802;53.160;8.214;2024-01-30T06:10:40;5.80;99.90
23267;DHT22;11802;53.160;8.214;2024-01-30T06:13:06;5.80;99.90
23267;DHT22;11802;53.160;8.214;2024-01-30T06:15:31;5.80;99.90
23267;DHT22;11802;53.160;8.214;2024-01-30T06:17:58;5.80;99.90
23267;DHT22;11802;53.160;8.214;2024-01-30T06:20:24;5.90;99.90
23267;DHT22;11802;53.160;8.214;2024-01-30T06:22:49;6.00;99.90
23267;DHT22;11802;53.160;8.214;2024-01-30T06:25:15;5.90;99.90
23267;DHT22;11802;53.160;8.214;2024-01-30T06:27:42;6.00;99.90
23267;DHT22;11802;53.160;8.214;2024-01-30T06:30:08;6.00;99.90
23267;DHT22;11802;53.160;8.214;2024-01-30T06:32:34;6.00;99.90
23267;DHT22;11802;53.160;8.214;2024-01-30T06:35:01;6.00;99.90
23267;DHT22;11802;53.160;8.214;2024-01-30T06:37:27;6.00;99.90
23267;DHT22;11802;53.160;8.214;2024-01-30T06:39:53;6.00;99.90
23267;DHT22;11802;53.160;8.214;2024-01-30T06:42:19;5.90;99.90
23267;DHT22;11802;53.160;8.214;2024-01-30T06:44:44;5.90;99.90
23267;DHT22;11802;53.160;8.214;2024-01-30T06:47:10;5.90;99.90
23267;DHT22;11802;53.160;8.214;2024-01-30T06:49:36;5.90;99.90
23267;DHT22;11802;53.160;8.214;2024-01-30T06:52:05;6.00;99.90
23267;DHT22;11802;53.160;8.214;2024-01-30T06:54:31;5.90;99.90
23267;DHT22;11802;53.160;8.214;2024-01-30T06:57:00;6.00;99.90
23267;DHT22;11802;53.160;8.214;2024-01-30T06:59:28;6.00;99.90
23267;DHT22;11802;53.160;8.214;2024-01-30T07:01:54;6.00;99.90
23267;DHT22;11802;53.160;8.214;2024-01-30T07:04:19;5.90;99.90
23267;DHT22;11802;53.160;8.214;2024-01-30T07:06:45;5.90;99.90
23267;DHT22;11802;53.160;8.214;2024-01-30T07:09:11;5.90;99.90
23267;DHT22;11802;53.160;8.214;2024-01-30T07:11:37;5.90;99.90
23267;DHT22;11802;53.160;8.214;2024-01-30T07:14:03;5.90;99.90
23267;DHT22;11802;53.160;8.214;2024-01-30T07:16:31;5.90;99.90
23267;DHT22;11802;53.160;8.214;2024-01-30T07:18:56;5.90;99.90
23267;DHT22;11802;53.160;8.214;2024-01-30T07:21:22;5.90;99.90
23267;DHT22;11802;53.160;8.214;2024-01-30T07:23:56;6.00;99.90
23267;DHT22;11802;53.160;8.214;2024-01-30T07:26:21;6.00;99.90
23267;DHT22;11802;53.160;8.214;2024-01-30T07:28:47;6.00;99.90
23267;DHT22;11802;53.160;8.214;2024-01-30T07:31:13;6.00;99.90
23267;DHT22;11802;53.160;8.214;2024-01-30T07:33:38;6.10;99.90
23267;DHT22;11802;53.160;8.214;2024-01-30T07:36:04;6.20;99.90
23267;DHT22;11802;53.160;8.214;2024-01-30T07:38:33;6.20;99.90
23267;DHT22;11802;53.160;8.214;2024-01-30T07:40:58;6.30;99.90
23267;DHT22;11802;53.160;8.214;2024-01-30T07:43:24;6.40;99.90
23267;DHT22;11802;53.160;8.214;2024-01-30T07:45:50;6.40;99.90
23267;DHT22;11802;53.160;8.214;2024-01-30T07:48:15;6.50;99.90
23267;DHT22;11802;53.160;8.214;2024-01-30T07:50:41;6.60;99.90
23267;DHT22;11802;53.160;8.214;2024-01-30T07:53:06;6.60;99.90
23267;DHT22;11802;53.160;8.214;2024-01-30T07:55:32;6.60;99.90
23267;DHT22;11802;53.160;8.214;2024-01-30T07:57:58;6.70;99.90
23267;DHT22;11802;53.160;8.214;2024-01-30T08:00:26;6.70;99.90
23267;DHT22;11802;53.160;8.214;2024-01-30T08:02:54;6.80;99.90
23267;DHT22;11802;53.160;8.214;2024-01-30T08:05:21;6.90;99.90
23267;DHT22;11802;53.160;8.214;2024-01-30T08:07:48;6.90;99.90
23267;DHT22;11802;53.160;8.214;2024-01-30T08:10:14;7.00;99.90
23267;DHT22;11802;53.160;8.214;2024-01-30T08:12:40;7.00;99.90
23267;DHT22;11802;53.160;8.214;2024-01-30T08:15:06;7.10;99.90
23267;DHT22;11802;53.160;8.214;2024-01-30T08:17:31;7.10;99.90
23267;DHT22;11802;53.160;8.214;2024-01-30T08:19:57;7.20;99.90
23267;DHT22;11802;53.160;8.214;2024-01-30T08:22:22;7.20;99.90
23267;DHT22;11802;53.160;8.214;2024-01-30T08:24:48;7.30;99.90
23267;DHT22;11802;53.160;8.214;2024-01-30T08:27:14;7.30;99.90
23267;DHT22;11802;53.160;8.214;2024-01-30T08:29:40;7.30;99.90
23267;DHT22;11802;53.160;8.214;2024-01-30T08:32:12;7.40;99.90
23267;DHT22;11802;53.160;8.214;2024-01-30T08:34:40;7.50;99.90
23267;DHT22;11802;53.160;8.214;2024-01-30T08:37:06;7.50;99.90
23267;DHT22;11802;53.160;8.214;2024-01-30T08:39:31;7.60;99.90
23267;DHT22;11802;53.160;8.214;2024-01-30T08:41:57;7.70;99.90
23267;DHT22;11802;53.160;8.214;2024-01-30T08:44:23;7.70;99.90
23267;DHT22;11802;53.160;8.214;2024-01-30T08:46:49;7.80;99.90
23267;DHT22;11802;53.160;8.214;2024-01-30T08:49:16;7.80;99.90
23267;DHT22;11802;53.160;8.214;2024-01-30T08:51:42;7.90;99.90
23267;DHT22;11802;53.160;8.214;2024-01-30T08:54:08;8.00;99.90
23267;DHT22;11802;53.160;8.214;2024-01-30T08:56:33;8.10;99.90
23267;DHT22;11802;53.160;8.214;2024-01-30T08:58:59;8.10;99.90
23267;DHT22;11802;53.160;8.214;2024-01-30T09:01:25;8.20;99.90
23267;DHT22;11802;53.160;8.214;2024-01-30T09:03:51;8.20;99.90
23267;DHT22;11802;53.160;8.214;2024-01-30T09:06:16;8.30;99.90
23267;DHT22;11802;53.160;8.214;2024-01-30T09:08:42;8.40;99.90
23267;DHT22;11802;53.160;8.214;2024-01-30T09:11:13;8.40;99.90
23267;DHT22;11802;53.160;8.214;2024-01-30T09:13:39;8.50;99.90
23267;DHT22;11802;53.160;8.214;2024-01-30T09:16:04;8.50;99.90
23267;DHT22;11802;53.160;8.214;2024-01-30T09:18:30;8.60;99.90
23267;DHT22;11802;53.160;8.214;2024-01-30T09:20:56;8.70;99.90
23267;DHT22;11802;53.160;8.214;2024-01-30T09:23:22;8.80;99.90
23267;DHT22;11802;53.160;8.214;2024-01-30T09:25:48;8.80;99.90
23267;DHT22;11802;53.160;8.214;2024-01-30T09:28:13;8.90;99.90
23267;DHT22;11802;53.160;8.214;2024-01-30T09:30:39;8.90;99.90
23267;DHT22;11802;53.160;8.214;2024-01-30T09:33:05;8.90;99.90
23267;DHT22;11802;53.160;8.214;2024-01-30T09:35:31;9.00;99.90
23267;DHT22;11802;53.160;8.214;2024-01-30T09:37:57;9.00;99.90
23267;DHT22;11802;53.160;8.214;2024-01-30T09:40:23;9.00;99.90
23267;DHT22;11802;53.160;8.214;2024-01-30T09:42:54;9.10;99.90
23267;DHT22;11802;53.160;8.214;2024-01-30T09:45:24;9.10;99.90
23267;DHT22;11802;53.160;8.214;2024-01-30T09:47:50;9.00;99.90
23267;DHT22;11802;53.160;8.214;2024-01-30T09:50:19;9.10;99.90
23267;DHT22;11802;53.160;8.214;2024-01-30T09:52:46;9.30;99.90
23267;DHT22;11802;53.160;8.214;2024-01-30T09:55:12;9.30;99.90
23267;DHT22;11802;53.160;8.214;2024-01-30T09:57:38;9.30;99.90
23267;DHT22;11802;53.160;8.214;2024-01-30T10:00:06;9.30;99.90
23267;DHT22;11802;53.160;8.214;2024-01-30T10:02:35;9.30;99.90
23267;DHT22;11802;53.160;8.214;2024-01-30T10:05:01;9.40;99.90
23267;DHT22;11802;53.160;8.214;2024-01-30T10:07:27;9.50;99.90
23267;DHT22;11802;53.160;8.214;2024-01-30T10:09:56;9.60;99.90
23267;DHT22;11802;53.160;8.214;2024-01-30T10:12:22;9.70;99.90
23267;DHT22;11802;53.160;8.214;2024-01-30T10:14:48;9.90;99.90
23267;DHT22;11802;53.160;8.214;2024-01-30T10:17:13;9.90;99.90
23267;DHT22;11802;53.160;8.214;2024-01-30T10:19:40;10.10;99.90
23267;DHT22;11802;53.160;8.214;2024-01-30T10:22:06;10.20;99.90
23267;DHT22;11802;53.160;8.214;2024-01-30T10:24:35;10.30;99.90
23267;DHT22;11802;53.160;8.214;2024-01-30T10:27:01;10.60;99.90
23267;DHT22;11802;53.160;8.214;2024-01-30T10:29:27;10.30;99.90
23267;DHT22;11802;53.160;8.214;2024-01-30T10:32:04;10.40;99.90
23267;DHT22;11802;53.160;8.214;2024-01-30T10:34:30;10.40;99.90
23267;DHT22;11802;53.160;8.214;2024-01-30T10:37:16;10.50;99.90
23267;DHT22;11802;53.160;8.214;2024-01-30T10:40:12;10.70;99.90
23267;DHT22;11802;53.160;8.214;2024-01-30T10:43:42;10.70;99.90
23267;DHT22;11802;53.160;8.214;2024-01-30T10:45:56;10.70;99.90
23267;DHT22;11802;53.160;8.214;2024-01-30T10:48:25;10.70;99.90
23267;DHT22;11802;53.160;8.214;2024-01-30T10:50:53;10.80;99.90
23267;DHT22;11802;53.160;8.214;2024-01-30T10:53:21;10.80;99.90
23267;DHT22;11802;53.160;8.214;2024-01-30T10:55:48;11.00;99.90
23267;DHT22;11802;53.160;8.214;2024-01-30T10:58:16;11.00;99.90
23267;DHT22;11802;53.160;8.214;2024-01-30T11:00:42;11.10;99.90
23267;DHT22;11802;53.160;8.214;2024-01-30T11:03:09;11.20;99.90
23267;DHT22;11802;53.160;8.214;2024-01-30T11:05:35;11.20;99.90
23267;DHT22;11802;53.160;8.214;2024-01-30T11:08:13;11.30;99.90
23267;DHT22;11802;53.160;8.214;2024-01-30T11:10:48;11.30;99.90
23267;DHT22;11802;53.160;8.214;2024-01-30T11:13:15;11.30;95.30
23267;DHT22;11802;53.160;8.214;2024-01-30T11:15:40;11.30;99.90
23267;DHT22;11802;53.160;8.214;2024-01-30T11:18:06;11.30;99.90
23267;DHT22;11802;53.160;8.214;2024-01-30T11:20:32;11.30;99.90
23267;DHT22;11802;53.160;8.214;2024-01-30T11:22:59;11.30;99.90
23267;DHT22;11802;53.160;8.214;2024-01-30T11:25:25;11.30;99.90
23267;DHT22;11802;53.160;8.214;2024-01-30T11:27:53;11.40;99.90
23267;DHT22;11802;53.160;8.214;2024-01-30T11:30:25;11.40;99.90
23267;DHT22;11802;53.160;8.214;2024-01-30T11:33:11;11.40;77.10
23267;DHT22;11802;53.160;8.214;2024-01-30T11:35:41;11.50;99.90
23267;DHT22;11802;53.160;8.214;2024-01-30T11:38:09;11.60;91.60
23267;DHT22;11802;53.160;8.214;2024-01-30T11:40:36;11.60;78.80
23267;DHT22;11802;53.160;8.214;2024-01-30T11:43:03;11.60;92.40
23267;DHT22;11802;53.160;8.214;2024-01-30T11:45:33;11.40;91.00
23267;DHT22;11802;53.160;8.214;2024-01-30T11:47:59;11.50;99.90
23267;DHT22;11802;53.160;8.214;2024-01-30T11:50:31;11.50;99.90
23267;DHT22;11802;53.160;8.214;2024-01-30T11:52:59;11.60;99.90
23267;DHT22;11802;53.160;8.214;2024-01-30T11:55:24;11.80;99.90
23267;DHT22;11802;53.160;8.214;2024-01-30T11:57:50;11.90;89.90
23267;DHT22;11802;53.160;8.214;2024-01-30T12:00:19;12.00;86.90
23267;DHT22;11802;53.160;8.214;2024-01-30T12:02:50;12.00;37.80
23267;DHT22;11802;53.160;8.214;2024-01-30T12:05:18;12.00;1.00
23267;DHT22;11802;53.160;8.214;2024-01-30T12:07:45;12.10;1.00
23267;DHT22;11802;53.160;8.214;2024-01-30T12:10:12;12.20;1.00
23267;DHT22;11802;53.160;8.214;2024-01-30T12:12:40;12.20;1.00
23267;DHT22;11802;53.160;8.214;2024-01-30T12:15:07;12.30;1.00
23267;DHT22;11802;53.160;8.214;2024-01-30T12:17:33;12.20;1.00
23267;DHT22;11802;53.160;8.214;2024-01-30T12:20:13;12.20;1.00
23267;DHT22;11802;53.160;8.214;2024-01-30T12:22:43;12.10;1.00
23267;DHT22;11802;53.160;8.214;2024-01-30T12:25:16;12.00;1.00
23267;DHT22;11802;53.160;8.214;2024-01-30T12:27:46;12.00;1.00
23267;DHT22;11802;53.160;8.214;2024-01-30T12:30:16;12.00;1.00
23267;DHT22;11802;53.160;8.214;2024-01-30T12:32:44;12.00;1.00
23267;DHT22;11802;53.160;8.214;2024-01-30T12:35:14;11.90;1.00
23267;DHT22;11802;53.160;8.214;2024-01-30T12:37:40;12.00;1.00
23267;DHT22;11802;53.160;8.214;2024-01-30T12:40:10;12.00;1.00
23267;DHT22;11802;53.160;8.214;2024-01-30T12:42:36;11.90;1.00
23267;DHT22;11802;53.160;8.214;2024-01-30T12:45:03;11.90;1.00
23267;DHT22;11802;53.160;8.214;2024-01-30T12:47:29;11.90;1.00
23267;DHT22;11802;53.160;8.214;2024-01-30T12:49:55;11.90;1.00
23267;DHT22;11802;53.160;8.214;2024-01-30T12:52:22;11.90;1.00
23267;DHT22;11802;53.160;8.214;2024-01-30T12:54:48;11.90;1.00
23267;DHT22;11802;53.160;8.214;2024-01-30T12:57:14;11.90;1.00
23267;DHT22;11802;53.160;8.214;2024-01-30T12:59:40;11.80;1.00
23267;DHT22;11802;53.160;8.214;2024-01-30T13:02:07;11.70;1.00
23267;DHT22;11802;53.160;8.214;2024-01-30T13:04:32;11.70;1.00
23267;DHT22;11802;53.160;8.214;2024-01-30T13:06:58;11.60;1.00
23267;DHT22;11802;53.160;8.214;2024-01-30T13:09:25;11.60;1.00
23267;DHT22;11802;53.160;8.214;2024-01-30T13:11:51;11.50;1.00
23267;DHT22;11802;53.160;8.214;2024-01-30T13:14:18;11.50;1.00
23267;DHT22;11802;53.160;8.214;2024-01-30T13:16:43;11.50;1.00
23267;DHT22;11802;53.160;8.214;2024-01-30T13:19:09;11.40;1.00
23267;DHT22;11802;53.160;8.214;2024-01-30T13:21:35;11.50;1.00
23267;DHT22;11802;53.160;8.214;2024-01-30T13:24:00;11.50;1.00
23267;DHT22;11802;53.160;8.214;2024-01-30T13:26:26;11.50;1.00
23267;DHT22;11802;53.160;8.214;2024-01-30T13:28:54;11.50;1.00
23267;DHT22;11802;53.160;8.214;2024-01-30T13:31:19;11.50;1.00
23267;DHT22;11802;53.160;8.214;2024-01-30T13:33:45;11.50;1.00
23267;DHT22;11802;53.160;8.214;2024-01-30T13:36:11;11.50;1.00
23267;DHT22;11802;53.160;8.214;2024-01-30T13:38:37;11.60;1.00
23267;DHT22;11802;53.160;8.214;2024-01-30T13:41:04;11.60;1.00
23267;DHT22;11802;53.160;8.214;2024-01-30T13:43:30;11.60;1.00
23267;DHT22;11802;53.160;8.214;2024-01-30T13:45:56;11.60;1.00
23267;DHT22;11802;53.160;8.214;2024-01-30T13:48:22;11.50;1.00
23267;DHT22;11802;53.160;8.214;2024-01-30T13:50:48;11.50;1.00
23267;DHT22;11802;53.160;8.214;2024-01-30T13:53:13;11.60;1.00
23267;DHT22;11802;53.160;8.214;2024-01-30T13:55:39;11.60;1.00
23267;DHT22;11802;53.160;8.214;2024-01-30T13:58:05;11.60;1.00
23267;DHT22;11802;53.160;8.214;2024-01-30T14:00:31;11.70;1.00
23267;DHT22;11802;53.160;8.214;2024-01-30T14:02:57;11.70;1.00
23267;DHT22;11802;53.160;8.214;2024-01-30T14:08:36;11.90;1.00
23267;DHT22;11802;53.160;8.214;2024-01-30T14:11:01;11.80;1.00
23267;DHT22;11802;53.160;8.214;2024-01-30T14:13:27;11.80;1.00
23267;DHT22;11802;53.160;8.214;2024-01-30T14:15:53;11.70;1.00
23267;DHT22;11802;53.160;8.214;2024-01-30T14:18:19;11.70;1.00
23267;DHT22;11802;53.160;8.214;2024-01-30T14:20:45;11.70;1.00
23267;DHT22;11802;53.160;8.214;2024-01-30T14:23:10;11.70;1.00
23267;DHT22;11802;53.160;8.214;2024-01-30T14:25:36;11.80;1.00
23267;DHT22;11802;53.160;8.214;2024-01-30T14:28:01;11.80;1.00
23267;DHT22;11802;53.160;8.214;2024-01-30T14:30:27;11.90;1.00
23267;DHT22;11802;53.160;8.214;2024-01-30T14:32:52;11.90;1.00
23267;DHT22;11802;53.160;8.214;2024-01-30T14:35:19;12.00;1.00
23267;DHT22;11802;53.160;8.214;2024-01-30T14:37:45;12.00;1.00
23267;DHT22;11802;53.160;8.214;2024-01-30T14:40:11;12.00;1.00
23267;DHT22;11802;53.160;8.214;2024-01-30T14:42:36;12.00;1.00
23267;DHT22;11802;53.160;8.214;2024-01-30T14:45:03;11.90;1.00
23267;DHT22;11802;53.160;8.214;2024-01-30T14:47:29;11.90;1.00
23267;DHT22;11802;53.160;8.214;2024-01-30T14:49:56;11.80;1.00
23267;DHT22;11802;53.160;8.214;2024-01-30T14:52:22;11.90;1.00
23267;DHT22;11802;53.160;8.214;2024-01-30T14:54:47;11.80;1.00
23267;DHT22;11802;53.160;8.214;2024-01-30T14:57:13;11.80;1.00
23267;DHT22;11802;53.160;8.214;2024-01-30T14:59:39;11.80;1.00
23267;DHT22;11802;53.160;8.214;2024-01-30T15:02:06;11.70;1.00
23267;DHT22;11802;53.160;8.214;2024-01-30T15:04:31;11.70;1.00
23267;DHT22;11802;53.160;8.214;2024-01-30T15:06:57;11.70;1.00
23267;DHT22;11802;53.160;8.214;2024-01-30T15:09:23;11.60;1.00
23267;DHT22;11802;53.160;8.214;2024-01-30T15:11:49;11.70;1.00
23267;DHT22;11802;53.160;8.214;2024-01-30T15:14:15;11.60;1.00
23267;DHT22;11802;53.160;8.214;2024-01-30T15:16:41;11.60;1.00
23267;DHT22;11802;53.160;8.214;2024-01-30T15:19:07;11.50;1.00
23267;DHT22;11802;53.160;8.214;2024-01-30T15:21:33;11.50;1.00
23267;DHT22;11802;53.160;8.214;2024-01-30T15:23:58;11.30;1.00
23267;DHT22;11802;53.160;8.214;2024-01-30T15:26:24;11.30;1.00
23267;DHT22;11802;53.160;8.214;2024-01-30T15:28:50;11.30;1.00
23267;DHT22;11802;53.160;8.214;2024-01-30T15:31:16;11.20;1.00
23267;DHT22;11802;53.160;8.214;2024-01-30T15:33:41;11.20;1.00
23267;DHT22;11802;53.160;8.214;2024-01-30T15:36:09;11.10;1.00
23267;DHT22;11802;53.160;8.214;2024-01-30T15:38:36;11.10;1.00
23267;DHT22;11802;53.160;8.214;2024-01-30T15:41:01;11.00;1.00
23267;DHT22;11802;53.160;8.214;2024-01-30T15:43:27;11.00;1.00